Time;durP1;ratioP1;P1;durP2;ratioP2;P2;SDS_P1;SDS_P2;PMS_P1;PMS_P2;Temp;Humidity;BMP_temperature;BMP_pressure;BME280_temperature;BME280_humidity;BME280_pressure;Samples;Min_cycle;Max_cycle;Signal;HPM_P1;HPM_P2
2022/12/04 00:01:22;;;;;;;13.80;8.57;;;;;;;-143.84;88.73;45308.03;5111087;28;20451;-76
2022/12/04 00:03:52;;;;;;;15.37;9.23;;;;;;;-143.84;88.86;45281.38;5111029;28;20431;-76
2022/12/04 00:06:21;;;;;;;14.20;8.87;;;;;;;-143.84;88.73;45283.28;5111023;28;20453;-77
2022/12/04 00:08:49;;;;;;;14.50;7.77;;;;;;;-143.84;88.73;45271.88;5110716;28;21030;-77
2022/12/04 00:11:18;;;;;;;13.40;8.30;;;;;;;-143.84;89.09;45290.91;5110983;28;20435;-77
2022/12/04 00:13:46;;;;;;;14.87;8.77;;;;;;;-143.84;89.24;45283.28;5110642;28;20540;-77
2022/12/04 00:16:16;;;;;;;11.73;8.83;;;;;;;-143.84;89.02;45283.28;5110585;28;20441;-76
2022/12/04 00:18:43;;;;;;;14.83;9.70;;;;;;;-143.84;89.14;45264.25;5110975;28;20447;-76
2022/12/04 00:21:13;;;;;;;14.30;9.53;;;;;;;-143.84;89.14;45277.56;5110551;28;20439;-76
2022/12/04 00:23:41;;;;;;;15.90;10.20;;;;;;;-143.84;88.67;45271.88;5110648;28;20438;-77
2022/12/04 00:26:11;;;;;;;14.90;9.73;;;;;;;-143.84;88.47;45281.38;5110523;28;21000;-77
2022/12/04 00:28:39;;;;;;;15.17;10.07;;;;;;;-143.84;88.44;45332.81;5110684;28;20435;-77
2022/12/04 00:31:07;;;;;;;16.97;9.23;;;;;;;-143.84;88.40;45290.91;5110476;28;20443;-76
2022/12/04 00:33:37;;;;;;;18.13;10.80;;;;;;;-143.84;88.42;45296.63;5110648;28;20502;-77
2022/12/04 00:36:05;;;;;;;19.53;10.33;;;;;;;-143.84;88.66;45273.78;5110516;28;20543;-76
2022/12/04 00:38:33;;;;;;;14.47;9.10;;;;;;;-143.84;88.35;45287.09;5110415;28;20998;-76
2022/12/04 00:41:00;;;;;;;19.13;9.10;;;;;;;-143.84;88.42;45271.88;5110320;28;20427;-76
2022/12/04 00:43:28;;;;;;;16.90;10.10;;;;;;;-143.84;88.63;45247.09;5110169;28;20435;-76
2022/12/04 00:45:55;;;;;;;13.07;8.80;;;;;;;-143.84;88.20;45275.66;5110512;28;20427;-76
2022/12/04 00:48:22;;;;;;;16.90;10.00;;;;;;;-143.84;88.25;45285.19;5110039;28;20442;-77
2022/12/04 00:50:53;;;;;;;16.53;9.40;;;;;;;-143.84;88.39;45306.13;5109293;28;20439;-76
2022/12/04 00:53:21;;;;;;;22.80;10.40;;;;;;;-143.84;88.52;45271.88;5109331;28;21266;-76
2022/12/04 00:55:48;;;;;;;14.63;9.70;;;;;;;-143.84;88.50;45294.72;5108994;28;20438;-77
2022/12/04 00:58:16;;;;;;;14.00;9.70;;;;;;;-143.84;88.35;45279.47;5109582;28;20439;-77
2022/12/04 01:00:43;;;;;;;13.97;9.00;;;;;;;-143.84;88.19;45269.97;5109159;28;20439;-77
2022/12/04 01:03:10;;;;;;;17.03;8.53;;;;;;;-143.84;88.61;45275.66;5109907;28;20442;-77
2022/12/04 01:05:39;;;;;;;16.17;10.37;;;;;;;-143.84;88.48;45285.19;5109006;28;20435;-77
2022/12/04 01:08:09;;;;;;;19.03;9.37;;;;;;;-143.84;88.33;45269.97;5109221;28;20447;-76
2022/12/04 01:10:38;;;;;;;21.17;10.97;;;;;;;-143.84;88.87;45245.19;5109499;28;20443;-77
2022/12/04 01:13:05;;;;;;;21.23;11.13;;;;;;;-143.84;88.53;45273.78;5108740;28;20488;-77
2022/12/04 01:15:32;;;;;;;15.70;10.10;;;;;;;-143.84;88.83;45260.44;5108359;28;20478;-77
2022/12/04 01:17:59;;;;;;;18.77;10.67;;;;;;;-143.84;88.65;45266.16;5108483;28;21128;-77
2022/12/04 01:20:27;;;;;;;22.60;12.80;;;;;;;-143.84;88.74;45271.88;5108121;28;20496;-77
2022/12/04 01:22:54;;;;;;;16.70;10.70;;;;;;;-143.84;88.86;45271.88;5108507;28;20439;-77
2022/12/04 01:25:23;;;;;;;18.00;11.37;;;;;;;-143.84;89.32;45292.81;5107962;28;20458;-77
2022/12/04 01:27:50;;;;;;;18.87;10.90;;;;;;;-143.84;89.10;45275.66;5108530;28;20536;-77
2022/12/04 01:30:17;;;;;;;25.17;12.90;;;;;;;-143.84;89.68;45262.34;5109640;28;20496;-76
2022/12/04 01:32:44;;;;;;;17.60;11.53;;;;;;;-143.84;89.47;45292.81;5109620;28;20947;-77
2022/12/04 01:35:11;;;;;;;21.73;12.07;;;;;;;-143.84;89.49;45275.66;5109506;28;20482;-77
2022/12/04 01:37:38;;;;;;;23.50;12.23;;;;;;;-143.84;89.61;45290.91;5109647;28;20438;-77
2022/12/04 01:40:07;;;;;;;22.60;12.30;;;;;;;-143.84;89.81;45260.44;5109151;28;20426;-77
2022/12/04 01:42:36;;;;;;;18.13;11.83;;;;;;;-143.84;90.05;45266.16;5109391;28;20492;-76
2022/12/04 01:45:36;;;;;;;23.07;13.33;;;;;;;-143.84;89.91;45290.91;5109503;28;20461;-77
2022/12/04 01:48:11;;;;;;;20.73;13.23;;;;;;;-143.84;90.07;45285.19;5106343;28;20447;-76
2022/12/04 01:50:38;;;;;;;23.73;13.13;;;;;;;-143.84;90.18;45298.53;5109483;28;20446;-77
2022/12/04 01:53:05;;;;;;;16.67;11.57;;;;;;;-143.84;89.97;45277.56;5109346;28;20434;-77
2022/12/04 01:55:33;;;;;;;24.73;13.17;;;;;;;-143.84;90.01;45285.19;5109269;28;20479;-77
2022/12/04 01:58:02;;;;;;;21.03;12.80;;;;;;;-143.84;89.78;45283.28;5109318;28;20492;-77
2022/12/04 02:00:29;;;;;;;17.43;9.90;;;;;;;-143.84;89.99;45285.19;5109357;28;20450;-77
2022/12/04 02:02:57;;;;;;;22.20;11.60;;;;;;;-143.84;89.78;45281.38;5109504;28;20438;-76
2022/12/04 02:05:24;;;;;;;22.67;12.00;;;;;;;-143.84;89.63;45289.00;5109599;28;20518;-77
2022/12/04 02:07:56;;;;;;;23.20;12.00;;;;;;;-143.84;89.45;45283.28;5109363;28;20461;-77
2022/12/04 02:10:31;;;;;;;23.10;12.50;;;;;;;-143.84;89.30;45281.38;5109459;28;20439;-77
2022/12/04 02:13:08;;;;;;;14.80;11.00;;;;;;;-143.84;89.11;45269.97;5109246;28;20434;-77
2022/12/04 02:15:42;;;;;;;19.97;11.63;;;;;;;-143.84;89.20;45269.97;5109244;28;20478;-77
2022/12/04 02:18:16;;;;;;;19.67;12.30;;;;;;;-143.84;88.89;45273.78;5109036;28;20772;-77
2022/12/04 02:20:51;;;;;;;22.90;11.70;;;;;;;-143.84;88.99;45289.00;5108963;28;20450;-77
2022/12/04 02:23:34;;;;;;;19.50;11.50;;;;;;;-143.84;89.16;45273.78;5109151;28;20450;-77
2022/12/04 02:26:17;;;;;;;15.40;10.50;;;;;;;-143.84;88.92;45285.19;5109161;28;20539;-77
2022/12/04 02:28:51;;;;;;;18.90;12.03;;;;;;;-143.84;89.03;45285.19;5108896;28;20451;-77
2022/12/04 02:31:22;;;;;;;21.00;12.80;;;;;;;-143.84;88.84;45309.94;5108987;28;20442;-77
2022/12/04 02:33:58;;;;;;;16.50;10.90;;;;;;;-143.84;89.24;45264.25;5108674;28;20450;-77
2022/12/04 02:36:30;;;;;;;19.63;11.73;;;;;;;-143.84;89.38;45273.78;5108805;28;20437;-77
2022/12/04 02:39:02;;;;;;;23.90;12.97;;;;;;;-143.84;89.47;45315.66;5110203;28;20435;-77
2022/12/04 02:41:43;;;;;;;18.33;11.10;;;;;;;-143.84;89.88;45271.88;5113069;28;20430;-77
2022/12/04 02:44:17;;;;;;;34.43;13.47;;;;;;;-143.84;89.59;45290.91;5112685;28;20472;-76
2022/12/04 02:46:48;;;;;;;20.33;12.10;;;;;;;-143.84;89.30;45275.66;5112718;28;20443;-77
2022/12/04 02:49:19;;;;;;;17.70;12.13;;;;;;;-143.84;89.51;45296.63;5112546;28;20549;-77
2022/12/04 02:51:48;;;;;;;23.23;11.50;;;;;;;-143.84;90.16;45283.28;5112527;28;20937;-77
2022/12/04 02:54:22;;;;;;;25.43;12.70;;;;;;;-143.84;90.15;45273.78;5112285;28;20501;-77
2022/12/04 02:56:50;;;;;;;21.17;11.80;;;;;;;-143.84;90.13;45260.44;5112685;28;20434;-77
2022/12/04 02:59:24;;;;;;;20.50;11.73;;;;;;;-143.84;90.34;45269.97;5112776;28;20434;-77
2022/12/04 03:01:55;;;;;;;25.10;12.40;;;;;;;-143.84;90.69;45269.97;5112466;28;20438;-77
2022/12/04 03:04:25;;;;;;;16.23;11.33;;;;;;;-143.84;91.04;45285.19;5112337;28;20431;-76
2022/12/04 03:06:56;;;;;;;20.20;11.60;;;;;;;-143.84;91.58;45308.03;5111928;28;20925;-77
2022/12/04 03:09:28;;;;;;;19.13;12.13;;;;;;;-143.84;91.35;45306.13;5103730;28;20444;-77
2022/12/04 03:12:00;;;;;;;22.03;12.30;;;;;;;-143.84;91.83;45273.78;5092037;28;20497;-77
2022/12/04 03:14:34;;;;;;;22.50;12.33;;;;;;;-143.84;91.80;45300.44;5092003;28;20478;-77
2022/12/04 03:17:07;;;;;;;24.00;13.50;;;;;;;-143.84;91.81;45258.53;5091707;28;20436;-77
2022/12/04 03:19:39;;;;;;;13.57;10.37;;;;;;;-143.84;92.25;45264.25;5091590;28;20444;-76
2022/12/04 03:22:10;;;;;;;20.20;11.87;;;;;;;-143.84;92.60;45233.78;5091746;28;20432;-76
2022/12/04 03:24:41;;;;;;;17.33;10.90;;;;;;;-143.84;93.07;45268.06;5091571;28;20454;-76
2022/12/04 03:27:13;;;;;;;18.13;12.20;;;;;;;-143.84;93.12;45268.06;5091526;28;20528;-77
2022/12/04 03:29:44;;;;;;;16.90;10.17;;;;;;;-143.84;93.32;45247.09;5091448;28;20933;-77
2022/12/04 03:32:16;;;;;;;21.27;12.77;;;;;;;-143.84;93.35;45285.19;5091880;28;20443;-77
2022/12/04 03:34:51;;;;;;;18.73;11.80;;;;;;;-143.84;93.41;45266.16;5091480;28;20521;-77
2022/12/04 03:37:22;;;;;;;22.57;13.13;;;;;;;-143.84;93.53;45285.19;5091197;28;20440;-77
2022/12/04 03:39:57;;;;;;;30.33;14.37;;;;;;;-143.84;93.14;45275.66;5101974;28;20495;-77
2022/12/04 03:42:28;;;;;;;21.10;12.23;;;;;;;-143.84;93.48;45269.97;5112124;28;20438;-77
2022/12/04 03:45:02;;;;;;;24.30;14.13;;;;;;;-143.84;93.17;45258.53;5111611;28;20500;-77
2022/12/04 03:47:34;;;;;;;22.73;12.67;;;;;;;-143.84;93.33;45273.78;5111536;28;20442;-77
2022/12/04 03:50:07;;;;;;;19.20;12.47;;;;;;;-143.84;93.23;45254.72;5110774;28;20485;-77
2022/12/04 03:52:42;;;;;;;22.83;13.30;;;;;;;-143.84;93.31;45250.91;5111313;28;20458;-76
2022/12/04 03:55:15;;;;;;;16.90;11.27;;;;;;;-143.84;93.20;45275.66;5111240;28;20550;-77
2022/12/04 03:57:45;;;;;;;16.60;11.13;;;;;;;-143.84;93.45;45256.63;5111200;28;20496;-76
2022/12/04 04:00:17;;;;;;;20.60;12.37;;;;;;;-143.84;93.52;45256.63;5111201;28;20439;-77
2022/12/04 04:02:49;;;;;;;20.30;11.90;;;;;;;-143.84;93.82;45277.56;5111511;28;20427;-77
2022/12/04 04:05:18;;;;;;;22.83;13.33;;;;;;;-143.84;93.81;45271.88;5110701;28;20861;-77
2022/12/04 04:07:49;;;;;;;19.03;12.17;;;;;;;-143.84;93.51;45287.09;5111145;28;21023;-77
2022/12/04 04:10:19;;;;;;;16.90;10.80;;;;;;;-143.84;93.53;45277.56;5110871;28;20952;-77
2022/12/04 04:24:13;;;;;;;25.43;12.60;;;;;;;-143.84;93.79;45235.69;5110951;28;20439;-77
2022/12/04 04:24:15;;;;;;;18.13;11.23;;;;;;;-143.84;94.30;45250.91;5110831;28;20944;-76
2022/12/04 04:26:44;;;;;;;20.40;12.27;;;;;;;-143.84;94.34;45271.88;5110383;28;20479;-77
2022/12/04 04:29:12;;;;;;;17.63;11.80;;;;;;;-143.84;94.27;45268.06;5110827;28;20438;-77
2022/12/04 04:31:46;;;;;;;21.00;10.83;;;;;;;-143.84;94.46;45269.97;5110807;28;20998;-77
2022/12/04 04:34:19;;;;;;;19.53;11.67;;;;;;;-143.84;94.42;45289.00;5110369;28;21011;-76
2022/12/04 04:36:55;;;;;;;15.67;10.13;;;;;;;-143.84;94.50;45229.97;5110809;28;20493;-76
2022/12/04 04:39:29;;;;;;;15.83;9.27;;;;;;;-143.84;94.84;45268.06;5110418;28;20462;-76
2022/12/04 04:42:02;;;;;;;19.60;11.43;;;;;;;-143.84;94.99;45268.06;5110520;28;20430;-77
2022/12/04 04:44:36;;;;;;;16.70;10.47;;;;;;;-143.84;94.76;45216.63;5110361;28;20510;-77
2022/12/04 04:47:11;;;;;;;14.63;10.13;;;;;;;-143.84;94.82;45241.41;5110382;28;20999;-77
2022/12/04 04:49:41;;;;;;;14.63;9.80;;;;;;;-143.84;94.90;45243.31;5110105;28;20454;-77
2022/12/04 04:52:10;;;;;;;14.03;8.73;;;;;;;-143.84;95.07;45252.81;5110471;28;20803;-77
2022/12/04 04:54:39;;;;;;;14.97;10.47;;;;;;;-143.84;95.30;45249.00;5110199;28;20478;-77
2022/12/04 04:57:06;;;;;;;15.57;10.60;;;;;;;-143.84;95.28;45233.78;5110206;28;20875;-77
2022/12/04 04:59:33;;;;;;;18.50;11.33;;;;;;;-143.84;95.05;45256.63;5110516;28;20450;-77
2022/12/04 05:02:00;;;;;;;21.07;11.77;;;;;;;-143.84;94.92;45273.78;5109991;28;20941;-76
2022/12/04 05:04:29;;;;;;;17.90;11.40;;;;;;;-143.84;94.93;45250.91;5110071;28;20435;-77
2022/12/04 05:06:56;;;;;;;19.13;11.80;;;;;;;-143.84;95.05;45226.16;5109757;28;20446;-77
2022/12/04 05:09:23;;;;;;;21.73;12.30;;;;;;;-143.84;94.66;45247.09;5109957;28;20532;-77
2022/12/04 05:11:50;;;;;;;22.87;13.67;;;;;;;-143.84;94.52;45273.78;5109984;28;20464;-77
2022/12/04 05:14:17;;;;;;;24.70;13.03;;;;;;;-143.84;94.32;45249.00;5109976;28;20484;-77
2022/12/04 05:16:44;;;;;;;21.50;12.47;;;;;;;-143.84;94.14;45239.50;5109861;28;20463;-77
2022/12/04 05:21:57;;;;;;;22.33;12.13;;;;;;;-143.84;94.07;45262.34;5109788;28;20516;-77
2022/12/04 05:24:24;;;;;;;21.43;12.70;;;;;;;-143.84;94.31;45279.47;5109760;28;20512;-77
2022/12/04 05:26:52;;;;;;;21.30;12.63;;;;;;;-143.84;94.19;45264.25;5109485;28;20482;-77
2022/12/04 05:29:19;;;;;;;17.50;11.60;;;;;;;-143.84;94.03;45249.00;5109643;28;20993;-77
2022/12/04 05:31:46;;;;;;;20.53;12.00;;;;;;;-143.84;94.33;45254.72;5109350;28;20864;-77
2022/12/04 05:34:13;;;;;;;21.63;12.40;;;;;;;-143.84;94.48;45269.97;5109343;28;20442;-77
2022/12/04 05:36:40;;;;;;;15.03;10.30;;;;;;;-143.84;94.65;45256.63;5109505;28;20996;-77
2022/12/04 05:39:08;;;;;;;19.70;12.43;;;;;;;-143.84;94.82;45296.63;5109667;28;20857;-77
2022/12/04 05:41:36;;;;;;;18.70;12.10;;;;;;;-143.84;94.59;45243.31;5109316;28;20451;-77
2022/12/04 05:44:03;;;;;;;16.40;10.37;;;;;;;-143.84;94.45;45247.09;5109529;28;20435;-76
2022/12/04 05:46:30;;;;;;;15.50;9.83;;;;;;;-143.84;95.10;45252.81;5109301;28;20488;-77
2022/12/04 05:48:57;;;;;;;20.10;10.17;;;;;;;-143.84;94.96;45247.09;5109131;28;20944;-77
2022/12/04 05:51:24;;;;;;;24.23;11.33;;;;;;;-143.84;94.85;45229.97;5109283;28;20435;-77
2022/12/04 05:53:52;;;;;;;15.10;9.37;;;;;;;-143.84;95.16;45224.25;5109315;28;21006;-76
2022/12/04 05:56:20;;;;;;;13.20;8.83;;;;;;;-143.84;94.94;45243.31;5109259;28;20992;-77
2022/12/04 05:58:48;;;;;;;12.93;9.30;;;;;;;-143.84;95.34;45231.88;5109251;28;20439;-76
2022/12/04 06:01:18;;;;;;;11.97;9.33;;;;;;;-143.84;95.35;45229.97;5109162;28;21022;-77
2022/12/04 06:03:46;;;;;;;13.27;9.63;;;;;;;-143.84;95.78;45241.41;5108834;28;20447;-76
2022/12/04 06:06:14;;;;;;;9.77;8.30;;;;;;;-143.84;95.67;45241.41;5108344;28;20868;-76
2022/12/04 06:08:41;;;;;;;15.53;8.33;;;;;;;-143.84;95.97;45235.69;5109209;28;21188;-77
2022/12/04 06:11:12;;;;;;;12.07;8.30;;;;;;;-143.84;96.33;45241.41;5109582;28;20520;-77
2022/12/04 06:13:42;;;;;;;10.73;8.00;;;;;;;-143.84;96.31;45201.41;5110009;28;20511;-77
2022/12/04 06:16:14;;;;;;;9.80;6.90;;;;;;;-143.84;96.61;45191.88;5112993;28;20478;-77
2022/12/04 06:18:41;;;;;;;8.33;7.00;;;;;;;-143.84;96.79;45218.53;5113557;28;20561;-77
2022/12/04 06:21:09;;;;;;;8.70;5.90;;;;;;;-143.84;97.00;45203.31;5113231;28;20870;-77
2022/12/04 06:23:37;;;;;;;6.63;5.77;;;;;;;-143.84;97.20;45189.97;5112913;28;20493;-77
2022/12/04 06:26:06;;;;;;;7.50;6.10;;;;;;;-143.84;97.30;45157.59;5112638;28;20988;-77
2022/12/04 06:28:33;;;;;;;8.13;6.47;;;;;;;-143.84;97.27;45191.88;5112563;28;20492;-77
2022/12/04 06:31:03;;;;;;;6.87;6.00;;;;;;;-143.84;97.08;45159.50;5112615;28;20495;-77
2022/12/04 06:33:31;;;;;;;6.83;6.13;;;;;;;-143.84;97.05;45176.66;5113299;28;20439;-77
2022/12/04 06:35:59;;;;;;;8.80;5.90;;;;;;;-143.84;96.96;45170.94;5113081;28;20508;-77
2022/12/04 06:38:26;;;;;;;6.97;5.27;;;;;;;-143.84;96.56;45170.94;5113103;28;21058;-77
2022/12/04 06:40:53;;;;;;;8.90;5.60;;;;;;;-143.84;96.61;45180.47;5113249;28;20444;-77
2022/12/04 06:43:20;;;;;;;7.57;5.60;;;;;;;-143.84;96.69;45176.66;5111444;28;20500;-78
2022/12/04 06:45:48;;;;;;;6.00;5.33;;;;;;;-143.84;96.71;45195.69;5112593;28;20446;-77
2022/12/04 06:48:16;;;;;;;7.03;4.63;;;;;;;-143.84;96.52;45201.41;5113002;28;20430;-78
2022/12/04 06:50:43;;;;;;;6.10;5.50;;;;;;;-143.84;96.76;45191.88;5112484;28;20427;-77
2022/12/04 06:53:10;;;;;;;5.17;4.67;;;;;;;-143.84;96.97;45165.22;5113028;28;20435;-77
2022/12/04 06:55:37;;;;;;;6.23;4.77;;;;;;;-143.84;96.98;45176.66;5112382;28;20543;-77
2022/12/04 06:58:04;;;;;;;6.77;4.77;;;;;;;-143.84;96.57;45165.22;5112056;28;20435;-77
2022/12/04 07:00:32;;;;;;;5.83;4.97;;;;;;;-143.84;96.66;45210.94;5112483;28;20811;-77
2022/12/04 07:02:59;;;;;;;5.33;4.83;;;;;;;-143.84;96.74;45195.69;5112259;28;20430;-77
2022/12/04 07:05:29;;;;;;;6.23;5.13;;;;;;;-143.84;96.47;45210.94;5112754;28;20442;-76
2022/12/04 07:07:56;;;;;;;7.47;4.77;;;;;;;-143.84;96.04;45214.72;5112641;28;20852;-77
2022/12/04 07:10:23;;;;;;;6.70;4.60;;;;;;;-143.84;95.92;45176.66;5112078;28;20495;-77
2022/12/04 07:12:50;;;;;;;5.00;4.50;;;;;;;-143.84;96.06;45199.50;5111302;28;20493;-77
2022/12/04 07:15:18;;;;;;;5.50;5.00;;;;;;;-143.84;95.76;45205.22;5112456;28;20887;-76
2022/12/04 07:17:45;;;;;;;5.47;4.97;;;;;;;-143.84;95.73;45212.84;5111729;28;20447;-77
2022/12/04 07:20:13;;;;;;;4.90;4.37;;;;;;;-143.84;95.59;45212.84;5111620;28;20496;-76
2022/12/04 07:22:42;;;;;;;5.50;4.70;;;;;;;-143.84;95.52;45207.13;5111907;28;20439;-76
2022/12/04 07:25:09;;;;;;;6.50;4.50;;;;;;;-143.84;95.76;45205.22;5110944;28;20806;-76
2022/12/04 07:27:37;;;;;;;4.63;4.23;;;;;;;-143.84;95.76;45222.34;5111386;28;20483;-77
2022/12/04 07:30:04;;;;;;;4.83;3.83;;;;;;;-143.84;96.26;45205.22;5111827;28;20484;-77
2022/12/04 07:32:31;;;;;;;5.07;3.63;;;;;;;-143.84;96.20;45176.66;5111758;28;20446;-76
2022/12/04 07:34:59;;;;;;;4.50;4.00;;;;;;;-143.84;96.56;45167.13;5111951;28;20435;-77
2022/12/04 07:37:26;;;;;;;4.13;3.83;;;;;;;-143.84;96.33;45195.69;5111301;28;20486;-77
2022/12/04 07:39:54;;;;;;;3.67;3.37;;;;;;;-143.84;96.68;45169.03;5111585;28;20465;-77
2022/12/04 07:42:22;;;;;;;4.13;3.80;;;;;;;-143.84;96.38;45180.47;5111224;28;20443;-77
2022/12/04 07:44:49;;;;;;;4.33;3.77;;;;;;;-143.84;96.41;45163.31;5111409;28;20438;-77
2022/12/04 07:47:16;;;;;;;4.30;3.90;;;;;;;-143.84;96.39;45178.56;5111575;28;20499;-77
2022/12/04 07:49:43;;;;;;;4.13;3.70;;;;;;;-143.84;96.46;45201.41;5110959;28;20941;-77
2022/12/04 07:52:10;;;;;;;9.03;4.20;;;;;;;-143.84;96.11;45195.69;5110662;28;20488;-77
2022/12/04 07:54:37;;;;;;;4.20;3.90;;;;;;;-143.84;96.19;45184.25;5111242;28;20484;-76
2022/12/04 07:57:06;;;;;;;6.50;4.87;;;;;;;-143.84;96.17;45195.69;5110648;28;20631;-77
2022/12/04 07:59:33;;;;;;;4.93;4.43;;;;;;;-143.84;95.93;45203.31;5111109;28;20956;-77
2022/12/04 08:02:00;;;;;;;5.50;5.00;;;;;;;-143.84;95.94;45193.78;5110538;28;21014;-77
2022/12/04 08:04:27;;;;;;;4.50;4.10;;;;;;;-143.84;95.48;45199.50;5110781;28;20508;-77
2022/12/04 08:06:54;;;;;;;7.67;6.00;;;;;;;-143.84;95.83;45186.16;5111030;28;20423;-78
2022/12/04 08:09:21;;;;;;;6.33;5.07;;;;;;;-143.84;95.70;45184.25;5111606;28;20435;-74
2022/12/04 08:11:48;;;;;;;8.40;5.10;;;;;;;-143.84;95.72;45201.41;5111213;28;20843;-75
2022/12/04 08:14:17;;;;;;;7.57;5.50;;;;;;;-143.84;96.36;45188.06;5111855;28;20439;-75
2022/12/04 08:16:44;;;;;;;5.90;5.33;;;;;;;-143.84;95.60;45237.59;5111213;28;20475;-74
2022/12/04 08:19:11;;;;;;;8.30;5.43;;;;;;;-143.84;96.29;45167.13;5111340;28;20431;-73
2022/12/04 08:21:38;;;;;;;6.97;5.97;;;;;;;-143.84;96.42;45189.97;5111321;28;20446;-74
2022/12/04 08:24:06;;;;;;;7.80;6.20;;;;;;;-143.84;96.13;45193.78;5102470;28;20443;-77
2022/12/04 08:26:33;;;;;;;6.70;5.97;;;;;;;-143.84;96.10;45228.06;5109601;28;20478;-77
2022/12/04 08:29:01;;;;;;;7.10;6.10;;;;;;;-143.84;96.10;45212.84;5110979;28;20435;-76
2022/12/04 08:31:32;;;;;;;10.80;7.37;;;;;;;-143.84;96.26;45216.63;5110622;28;20439;-77
2022/12/04 08:34:01;;;;;;;11.73;6.90;;;;;;;-143.84;96.10;45186.16;5110250;28;20435;-77
2022/12/04 08:36:29;;;;;;;8.03;6.37;;;;;;;-143.84;96.48;45195.69;5110344;28;20462;-77
2022/12/04 08:38:56;;;;;;;9.10;6.70;;;;;;;-143.84;96.19;45174.75;5109828;28;20455;-77
2022/12/04 08:41:25;;;;;;;11.80;7.27;;;;;;;-143.84;96.17;45188.06;5110527;28;20439;-78
2022/12/04 08:43:53;;;;;;;10.40;7.37;;;;;;;-143.84;96.68;45205.22;5111110;28;20435;-77
2022/12/04 08:46:21;;;;;;;8.60;7.43;;;;;;;-143.84;96.57;45170.94;5110818;28;20427;-77
2022/12/04 08:48:50;;;;;;;9.37;7.60;;;;;;;-143.84;96.51;45178.56;5111033;28;20438;-77
2022/12/04 08:51:19;;;;;;;11.40;8.10;;;;;;;-143.84;96.51;45153.81;5110492;28;20504;-77
2022/12/04 08:53:47;;;;;;;10.00;8.73;;;;;;;-143.84;96.31;45189.97;5110190;28;20431;-78
2022/12/04 08:56:14;;;;;;;8.90;7.60;;;;;;;-143.84;96.79;45148.09;5110105;28;20812;-77
2022/12/04 08:58:41;;;;;;;15.73;8.73;;;;;;;-143.84;96.44;45140.47;5110587;28;20877;-76
2022/12/04 09:01:10;;;;;;;16.20;7.20;;;;;;;-143.84;96.70;45170.94;5110214;28;20426;-77
2022/12/04 09:03:38;;;;;;;11.23;8.23;;;;;;;-143.84;97.10;45134.75;5110216;28;20859;-76
2022/12/04 09:06:09;;;;;;;15.40;8.47;;;;;;;-143.84;96.58;45132.84;5109968;28;20489;-76
2022/12/04 09:08:37;;;;;;;8.53;7.63;;;;;;;-143.84;96.58;45146.19;5110865;28;21003;-77
2022/12/04 09:11:05;;;;;;;9.20;7.30;;;;;;;-143.84;96.53;45163.31;5111419;28;20448;-78
2022/12/04 09:13:32;;;;;;;11.33;8.20;;;;;;;-143.84;96.58;45146.19;5111484;28;20431;-79
2022/12/04 09:15:59;;;;;;;15.43;8.30;;;;;;;-143.84;96.33;45138.56;5111878;28;20478;-77
2022/12/04 09:18:26;;;;;;;10.30;8.07;;;;;;;-143.84;96.30;45161.41;5111547;28;20929;-79
2022/12/04 09:20:57;;;;;;;9.27;7.23;;;;;;;-143.84;96.37;45140.47;5111688;28;20489;-78
2022/12/04 09:23:26;;;;;;;10.60;7.67;;;;;;;-143.84;96.02;45150.00;5110754;28;20503;-78
2022/12/04 09:25:54;;;;;;;15.93;8.17;;;;;;;-143.84;95.24;45184.25;5111093;28;20847;-78
2022/12/04 09:28:21;;;;;;;7.37;6.37;;;;;;;-143.84;95.82;45161.41;5112072;28;20493;-80
2022/12/04 09:30:57;;;;;;;9.80;6.67;;;;;;;-143.84;95.42;45170.94;5110681;28;20839;-76
2022/12/04 09:33:24;;;;;;;10.00;7.03;;;;;;;-143.84;95.61;45169.03;5110744;28;20852;-77
2022/12/04 09:35:51;;;;;;;7.77;6.87;;;;;;;-143.84;95.10;45165.22;5111516;28;20939;-78
2022/12/04 09:38:19;;;;;;;5.53;5.13;;;;;;;-143.84;95.02;45184.25;5111220;28;20472;-78
2022/12/04 09:40:55;;;;;;;8.67;5.73;;;;;;;-143.84;94.96;45205.22;5110516;28;20485;-79
2022/12/04 09:43:31;;;;;;;5.33;4.80;;;;;;;-143.84;95.18;45193.78;5111079;28;20462;-79
2022/12/04 09:46:07;;;;;;;6.63;4.83;;;;;;;-143.84;94.62;45186.16;5110873;28;20488;-79
2022/12/04 09:48:38;;;;;;;6.80;5.30;;;;;;;-143.84;94.48;45189.97;5110632;28;20439;-78
2022/12/04 09:51:15;;;;;;;7.70;5.73;;;;;;;-143.84;94.06;45178.56;5110964;28;20464;-78
2022/12/04 09:53:47;;;;;;;7.37;6.40;;;;;;;-143.84;93.90;45235.69;5111069;28;20445;-79
2022/12/04 09:56:19;;;;;;;6.87;5.90;;;;;;;-143.84;94.10;45212.84;5110537;28;20475;-78
2022/12/04 09:58:49;;;;;;;8.70;5.93;;;;;;;-143.84;94.19;45220.44;5110793;28;20818;-79
2022/12/04 10:01:23;;;;;;;9.07;6.10;;;;;;;-143.84;93.87;45216.63;5110873;28;20438;-78
2022/12/04 10:03:50;;;;;;;7.50;6.37;;;;;;;-143.84;94.16;45212.84;5110923;28;20439;-78
2022/12/04 10:06:23;;;;;;;6.70;5.60;;;;;;;-143.84;93.59;45216.63;5110833;28;20508;-78
2022/12/04 10:08:58;;;;;;;6.10;5.40;;;;;;;-143.84;93.50;45216.63;5111217;28;20436;-78
2022/12/04 10:11:46;;;;;;;6.03;5.53;;;;;;;-143.84;93.55;45235.69;5110079;28;20443;-77
2022/12/04 10:14:33;;;;;;;7.20;5.60;;;;;;;-143.84;93.53;45231.88;5110207;28;20506;-77
2022/12/04 10:17:20;;;;;;;8.50;5.20;;;;;;;-143.84;93.34;45214.72;5110226;28;20867;-78
2022/12/04 10:19:53;;;;;;;7.77;5.77;;;;;;;-143.84;93.45;45231.88;5110163;28;20427;-78
2022/12/04 10:22:30;;;;;;;6.70;5.13;;;;;;;-143.84;93.71;45245.19;5110586;28;20466;-79
2022/12/04 10:25:00;;;;;;;5.90;5.20;;;;;;;-143.84;93.68;45228.06;5109889;28;20450;-78
2022/12/04 10:27:33;;;;;;;7.70;5.87;;;;;;;-143.84;93.60;45218.53;5109549;28;20470;-78
2022/12/04 10:30:04;;;;;;;8.63;5.93;;;;;;;-143.84;93.55;45229.97;5108548;28;20452;-78
2022/12/04 10:32:33;;;;;;;8.80;6.10;;;;;;;-143.84;93.29;45241.41;5110195;28;20464;-80
2022/12/04 10:35:20;;;;;;;6.70;5.30;;;;;;;-143.84;93.45;45205.22;5110062;28;20424;-77
2022/12/04 10:37:53;;;;;;;8.10;5.87;;;;;;;-143.84;92.49;45228.06;5109841;28;20478;-77
2022/12/04 10:40:25;;;;;;;6.70;5.57;;;;;;;-143.84;91.64;45228.06;5109745;28;21364;-76
2022/12/04 10:42:57;;;;;;;7.40;5.40;;;;;;;-143.84;92.15;45229.97;5108541;28;20495;-74
2022/12/04 10:45:25;;;;;;;8.47;6.67;;;;;;;-143.84;92.57;45212.84;5089862;28;20480;-74
2022/12/04 10:47:53;;;;;;;7.70;6.77;;;;;;;-143.84;92.32;45226.16;5089331;28;20452;-75
2022/12/04 10:50:23;;;;;;;6.83;5.73;;;;;;;-143.84;91.95;45224.25;5089990;28;20421;-75
2022/12/04 10:52:51;;;;;;;6.33;5.73;;;;;;;-143.84;91.91;45226.16;5089796;28;20441;-75
2022/12/04 10:55:29;;;;;;;6.67;6.07;;;;;;;-143.84;92.29;45224.25;5089531;28;20445;-76
2022/12/04 10:57:57;;;;;;;6.10;5.47;;;;;;;-143.84;92.46;45243.31;5089598;28;20484;-75
2022/12/04 11:00:28;;;;;;;6.30;5.40;;;;;;;-143.84;92.33;45210.94;5091850;28;20439;-75
2022/12/04 11:02:58;;;;;;;5.87;5.27;;;;;;;-143.84;92.78;45243.31;5107928;28;20440;-76
2022/12/04 11:05:29;;;;;;;7.30;5.60;;;;;;;-143.84;92.29;45237.59;5114415;28;20568;-75
2022/12/04 11:07:57;;;;;;;5.40;5.00;;;;;;;-143.84;92.00;45254.72;5114007;28;20436;-75
2022/12/04 11:10:30;;;;;;;5.13;4.50;;;;;;;-143.84;91.52;45205.22;5113129;28;20428;-77
2022/12/04 11:13:01;;;;;;;10.10;4.60;;;;;;;-143.84;91.62;45222.34;5113774;28;20458;-76
2022/12/04 11:15:29;;;;;;;7.40;4.63;;;;;;;-143.84;91.88;45228.06;5114718;28;20431;-76
2022/12/04 11:18:08;;;;;;;6.30;4.80;;;;;;;-143.84;92.05;45220.44;5114145;28;20560;-78
2022/12/04 11:20:35;;;;;;;4.97;4.57;;;;;;;-143.84;91.21;45243.31;5114934;28;20817;-78
2022/12/04 11:23:03;;;;;;;6.57;4.30;;;;;;;-143.84;91.43;45249.00;5114426;28;20428;-78
2022/12/04 11:25:37;;;;;;;5.20;4.70;;;;;;;-143.84;91.12;45209.03;5114549;28;20444;-76
2022/12/04 11:28:06;;;;;;;7.67;5.07;;;;;;;-143.84;91.46;45231.88;5113724;28;20972;-75
2022/12/04 11:30:36;;;;;;;5.07;4.60;;;;;;;-143.84;91.32;45245.19;5114048;28;20436;-76
2022/12/04 11:33:05;;;;;;;5.43;4.93;;;;;;;-143.84;90.62;45247.09;5115938;28;20871;-73